createdAt,value
2022-08-14T00:00:00.365Z,23.20
2022-08-14T00:02:31.337Z,23.20
2022-08-14T00:04:59.756Z,23.10
2022-08-14T00:07:29.253Z,23.10
2022-08-14T00:10:49.318Z,23.00
2022-08-14T00:12:56.389Z,23.00
2022-08-14T00:15:43.986Z,22.90
2022-08-14T00:18:30.446Z,22.90
2022-08-14T00:21:11.258Z,22.90
2022-08-14T00:23:40.998Z,22.80
2022-08-14T00:26:21.878Z,22.80
2022-08-14T00:28:53.112Z,22.70
2022-08-14T00:31:34.654Z,22.60
2022-08-14T00:34:36.989Z,22.60
2022-08-14T00:36:51.951Z,22.60
2022-08-14T00:39:21.591Z,22.50
2022-08-14T00:41:50.584Z,22.50
2022-08-14T00:46:08.247Z,22.50
2022-08-14T00:48:51.979Z,22.40
2022-08-14T00:51:21.903Z,22.30
2022-08-14T00:53:51.024Z,22.30
2022-08-14T00:56:25.209Z,22.30
2022-08-14T00:58:59.727Z,22.20
2022-08-14T01:01:27.728Z,22.20
2022-08-14T01:03:58.930Z,22.20
2022-08-14T01:06:30.171Z,22.10
2022-08-14T01:08:59.947Z,22.10
2022-08-14T01:11:35.581Z,22.10
2022-08-14T01:14:28.257Z,22.00
2022-08-14T01:16:53.219Z,22.00
2022-08-14T01:19:43.403Z,21.90
2022-08-14T01:22:12.519Z,21.90
2022-08-14T01:24:43.480Z,21.90
2022-08-14T01:27:19.679Z,21.90
2022-08-14T01:30:03.380Z,21.80
2022-08-14T01:32:37.655Z,21.80
2022-08-14T01:35:17.958Z,21.80
2022-08-14T01:37:59.007Z,21.80
2022-08-14T01:40:36.336Z,21.80
2022-08-14T01:43:18.338Z,21.80
2022-08-14T01:45:57.838Z,21.70
2022-08-14T01:48:37.338Z,21.60
2022-08-14T01:51:19.297Z,21.70
2022-08-14T01:53:55.545Z,21.60
2022-08-14T01:56:37.174Z,21.60
2022-08-14T01:59:10.217Z,21.50
2022-08-14T02:01:58.703Z,21.50
2022-08-14T02:04:40.623Z,21.40
2022-08-14T02:07:34.807Z,21.40
2022-08-14T02:10:15.536Z,21.30
2022-08-14T02:12:54.315Z,21.30
2022-08-14T02:15:26.418Z,21.30
2022-08-14T02:17:54.538Z,21.30
2022-08-14T02:20:23.910Z,21.30
2022-08-14T02:22:55.422Z,21.30
2022-08-14T02:25:24.211Z,21.30
2022-08-14T02:28:25.368Z,21.30
2022-08-14T02:30:46.674Z,21.30
2022-08-14T02:33:14.514Z,21.30
2022-08-14T02:35:48.283Z,21.30
2022-08-14T02:38:29.929Z,21.30
2022-08-14T02:40:58.841Z,21.20
2022-08-14T02:43:36.714Z,21.20
2022-08-14T02:46:20.458Z,21.20
2022-08-14T02:49:03.121Z,21.20
2022-08-14T02:51:36.369Z,21.20
2022-08-14T02:54:13.189Z,21.10
2022-08-14T02:57:15.394Z,21.10
2022-08-14T02:59:39.332Z,21.10
2022-08-14T03:02:24.583Z,21.00
2022-08-14T03:05:00.359Z,20.90
2022-08-14T03:07:29.379Z,20.90
2022-08-14T03:10:27.506Z,20.80
2022-08-14T03:12:46.259Z,20.80
2022-08-14T03:15:16.443Z,20.70
2022-08-14T03:17:57.146Z,20.70
2022-08-14T03:20:28.934Z,20.70
2022-08-14T03:23:00.187Z,20.70
2022-08-14T03:25:33.456Z,20.60
2022-08-14T03:28:04.234Z,20.60
2022-08-14T03:30:39.338Z,20.50
2022-08-14T03:33:11.208Z,20.50
2022-08-14T03:36:00.384Z,20.40
2022-08-14T03:39:12.414Z,20.40
2022-08-14T03:41:25.824Z,20.40
2022-08-14T03:44:01.110Z,20.30
2022-08-14T03:46:52.463Z,20.30
2022-08-14T03:49:28.906Z,20.20
2022-08-14T03:52:00.908Z,20.20
2022-08-14T03:54:29.542Z,20.10
2022-08-14T03:57:02.794Z,20.10
2022-08-14T03:59:35.325Z,20.00
2022-08-14T04:02:04.585Z,20.00
2022-08-14T04:04:38.213Z,19.90
2022-08-14T04:07:11.050Z,19.90
2022-08-14T04:09:39.132Z,19.90
2022-08-14T04:12:13.289Z,19.80
2022-08-14T04:14:42.239Z,19.80
2022-08-14T04:17:10.360Z,19.70
2022-08-14T04:19:40.798Z,19.70
2022-08-14T04:22:09.365Z,19.70
2022-08-14T04:24:40.576Z,19.60
2022-08-14T04:27:11.605Z,19.60
2022-08-14T04:29:45.152Z,19.50
2022-08-14T04:32:57.439Z,19.50
2022-08-14T04:35:01.711Z,19.50
2022-08-14T04:37:54.840Z,19.50
2022-08-14T04:40:42.323Z,19.50
2022-08-14T04:43:38.730Z,19.40
2022-08-14T04:46:55.323Z,19.40
2022-08-14T04:49:07.916Z,19.40
2022-08-14T04:51:37.511Z,19.40
2022-08-14T04:54:16.605Z,19.40
2022-08-14T04:56:45.546Z,19.30
2022-08-14T04:59:13.956Z,19.30
2022-08-14T05:01:49.127Z,19.30
2022-08-14T05:04:21.085Z,19.20
2022-08-14T05:06:53.574Z,19.20
2022-08-14T05:09:29.234Z,19.20
2022-08-14T05:13:10.645Z,19.20
2022-08-14T05:14:53.312Z,19.10
2022-08-14T05:17:28.827Z,19.20
2022-08-14T05:21:05.061Z,19.20
2022-08-14T05:23:01.340Z,19.10
2022-08-14T05:25:31.903Z,19.20
2022-08-14T05:28:14.171Z,19.10
2022-08-14T05:30:47.281Z,19.10
2022-08-14T05:33:18.550Z,19.20
2022-08-14T05:35:48.014Z,19.20
2022-08-14T05:38:22.272Z,19.20
2022-08-14T05:41:00.915Z,19.20
2022-08-14T05:43:40.815Z,19.20
2022-08-14T05:46:15.690Z,19.30
2022-08-14T05:48:44.186Z,19.30
2022-08-14T05:51:13.848Z,19.40
2022-08-14T05:53:42.451Z,19.40
2022-08-14T05:56:10.615Z,19.50
2022-08-14T05:58:41.284Z,19.50
2022-08-14T06:01:11.397Z,19.60
2022-08-14T06:03:40.445Z,19.60
2022-08-14T06:06:08.483Z,19.70
2022-08-14T06:08:41.449Z,19.70
2022-08-14T06:11:10.468Z,19.80
2022-08-14T06:13:45.857Z,19.90
2022-08-14T06:16:18.370Z,20.00
2022-08-14T06:18:52.569Z,20.00
2022-08-14T06:21:22.535Z,20.10
2022-08-14T06:23:51.346Z,20.10
2022-08-14T06:26:22.436Z,20.20
2022-08-14T06:28:52.452Z,20.20
2022-08-14T06:31:21.596Z,20.30
2022-08-14T06:35:03.241Z,20.40
2022-08-14T06:36:39.859Z,20.50
2022-08-14T06:39:10.516Z,20.60
2022-08-14T06:41:56.871Z,20.70
2022-08-14T06:44:30.668Z,20.70
2022-08-14T06:47:04.789Z,20.90
2022-08-14T06:49:43.388Z,20.90
2022-08-14T06:52:15.399Z,21.00
2022-08-14T06:54:46.506Z,21.10
2022-08-14T06:57:16.919Z,21.20
2022-08-14T06:59:45.956Z,21.30
2022-08-14T07:02:32.688Z,21.40
2022-08-14T07:05:23.577Z,21.50
2022-08-14T07:07:51.643Z,21.70
2022-08-14T07:10:24.805Z,21.80
2022-08-14T07:13:01.423Z,21.90
2022-08-14T07:15:32.526Z,22.10
2022-08-14T07:18:08.878Z,22.50
2022-08-14T07:20:38.598Z,22.90
2022-08-14T07:23:10.782Z,23.30
2022-08-14T07:25:42.278Z,23.90
2022-08-14T07:28:21.620Z,24.40
2022-08-14T07:30:52.151Z,24.90
2022-08-14T07:33:28.836Z,25.30
2022-08-14T07:36:02.105Z,25.80
2022-08-14T07:38:38.028Z,26.20
2022-08-14T07:41:14.433Z,26.50
2022-08-14T07:43:47.291Z,26.90
2022-08-14T07:46:21.247Z,27.20
2022-08-14T07:50:05.088Z,27.50
2022-08-14T07:52:34.486Z,27.60
2022-08-14T07:55:02.332Z,27.90
2022-08-14T07:57:30.106Z,28.20
2022-08-14T08:00:01.679Z,28.60
2022-08-14T08:02:45.519Z,29.00
2022-08-14T08:05:17.570Z,29.40
2022-08-14T08:07:47.175Z,29.80
2022-08-14T08:11:02.491Z,30.10
2022-08-14T08:13:24.290Z,30.20
2022-08-14T08:15:57.482Z,30.40
2022-08-14T08:19:05.885Z,30.60
2022-08-14T08:21:45.142Z,30.90
2022-08-14T08:24:18.367Z,31.00
2022-08-14T08:26:50.707Z,30.80
2022-08-14T08:29:28.963Z,30.80
2022-08-14T08:32:01.617Z,30.90
2022-08-14T08:34:47.092Z,31.00
2022-08-14T08:37:16.127Z,31.00
2022-08-14T08:40:02.906Z,30.90
2022-08-14T08:42:41.272Z,30.80
2022-08-14T08:45:19.376Z,30.90
2022-08-14T08:47:47.724Z,31.00
2022-08-14T08:50:23.022Z,31.00
2022-08-14T08:52:53.196Z,31.00
2022-08-14T08:55:26.480Z,31.00
2022-08-14T08:58:16.228Z,31.00
2022-08-14T09:00:54.256Z,31.10
2022-08-14T09:03:27.884Z,31.10
2022-08-14T09:06:03.039Z,31.10
2022-08-14T09:08:36.980Z,31.10
2022-08-14T09:11:19.772Z,31.20
2022-08-14T09:13:51.141Z,31.40
2022-08-14T09:16:25.533Z,31.60
2022-08-14T09:18:55.937Z,31.50
2022-08-14T09:21:31.434Z,31.50
2022-08-14T09:24:28.054Z,31.60
2022-08-14T09:26:50.926Z,31.80
2022-08-14T09:29:22.863Z,31.90
2022-08-14T09:31:57.545Z,31.90
2022-08-14T09:34:59.573Z,31.90
2022-08-14T09:37:33.210Z,31.90
2022-08-14T09:40:21.161Z,32.00
2022-08-14T09:43:11.647Z,32.10
2022-08-14T09:45:53.022Z,32.10
2022-08-14T09:48:27.442Z,32.00
2022-08-14T09:54:17.943Z,31.80
2022-08-14T09:56:44.405Z,31.70
2022-08-14T09:59:17.777Z,31.80
2022-08-14T10:01:46.087Z,31.80
2022-08-14T10:04:33.649Z,31.70
2022-08-14T10:07:05.747Z,31.60
2022-08-14T10:09:34.969Z,31.60
2022-08-14T10:12:13.323Z,31.70
2022-08-14T10:14:53.387Z,31.80
2022-08-14T10:17:27.578Z,31.90
2022-08-14T10:20:01.572Z,32.00
2022-08-14T10:23:22.317Z,32.00
2022-08-14T10:25:19.861Z,31.80
2022-08-14T10:27:58.819Z,31.60
2022-08-14T10:30:36.618Z,31.60
2022-08-14T10:33:04.523Z,31.60
2022-08-14T10:35:42.411Z,31.70
2022-08-14T10:38:36.082Z,31.70
2022-08-14T10:41:15.815Z,31.90
2022-08-14T10:43:46.224Z,31.90
2022-08-14T10:47:25.084Z,31.90
2022-08-14T10:49:09.742Z,31.90
2022-08-14T10:51:39.767Z,31.90
2022-08-14T10:54:17.193Z,31.90
2022-08-14T10:57:25.125Z,31.90
2022-08-14T11:00:01.051Z,31.80
2022-08-14T11:02:50.181Z,31.70
2022-08-14T11:05:26.447Z,31.70
2022-08-14T11:07:57.487Z,31.80
2022-08-14T11:10:39.453Z,31.80
2022-08-14T11:13:28.824Z,31.90
2022-08-14T11:16:03.011Z,32.00
2022-08-14T11:18:40.053Z,32.10
2022-08-14T11:21:10.573Z,32.10
2022-08-14T11:23:41.179Z,32.10
2022-08-14T11:26:14.143Z,32.10
2022-08-14T11:28:49.799Z,32.10
2022-08-14T11:31:23.563Z,32.10
2022-08-14T11:33:58.395Z,32.00
2022-08-14T11:36:35.014Z,32.10
2022-08-14T11:39:34.852Z,32.10
2022-08-14T11:42:55.184Z,32.00
2022-08-14T11:45:00.738Z,31.80
2022-08-14T11:47:35.635Z,31.60
2022-08-14T11:50:33.832Z,31.60
2022-08-14T11:53:28.483Z,31.50
2022-08-14T11:56:06.182Z,31.40
2022-08-14T11:58:39.137Z,31.50
2022-08-14T12:01:10.259Z,31.50
2022-08-14T12:03:46.500Z,31.50
2022-08-14T12:06:28.477Z,31.60
2022-08-14T12:09:08.298Z,31.70
2022-08-14T12:11:43.295Z,31.70
2022-08-14T12:14:29.278Z,31.70
2022-08-14T12:17:12.259Z,31.80
2022-08-14T12:19:50.586Z,31.80
2022-08-14T12:22:31.476Z,31.90
2022-08-14T12:25:00.674Z,32.00
2022-08-14T12:27:43.512Z,32.10
2022-08-14T12:30:42.666Z,32.20
2022-08-14T12:33:30.952Z,32.30
2022-08-14T12:36:08.845Z,32.30
2022-08-14T12:38:43.590Z,32.40
2022-08-14T12:42:36.450Z,32.40
2022-08-14T12:45:13.110Z,32.50
2022-08-14T12:47:47.029Z,32.60
2022-08-14T12:50:20.281Z,32.60
2022-08-14T12:53:01.838Z,32.60
2022-08-14T12:56:18.683Z,32.60
2022-08-14T12:58:36.502Z,32.60
2022-08-14T13:01:26.741Z,32.70
2022-08-14T13:04:13.296Z,32.80
2022-08-14T13:06:50.736Z,32.80
2022-08-14T13:09:21.087Z,32.80
2022-08-14T13:11:59.112Z,32.80
2022-08-14T13:14:48.964Z,32.80
2022-08-14T13:17:17.833Z,32.80
2022-08-14T13:19:46.620Z,32.80
2022-08-14T13:22:32.142Z,32.70
2022-08-14T13:25:05.163Z,32.80
2022-08-14T13:27:38.598Z,32.80
2022-08-14T13:30:21.317Z,32.70
2022-08-14T13:32:57.814Z,32.60
2022-08-14T13:35:27.119Z,32.50
2022-08-14T13:37:55.845Z,32.50
2022-08-14T13:40:26.655Z,32.50
2022-08-14T13:42:57.081Z,32.60
2022-08-14T13:45:34.018Z,32.70
2022-08-14T13:48:27.463Z,32.70
2022-08-14T13:53:16.313Z,32.80
2022-08-14T13:55:52.103Z,32.70
2022-08-14T13:58:30.434Z,32.80
2022-08-14T14:01:04.333Z,32.90
2022-08-14T14:03:36.003Z,32.80
2022-08-14T14:06:04.654Z,32.90
2022-08-14T14:08:46.747Z,32.90
2022-08-14T14:11:24.277Z,33.10
2022-08-14T14:13:55.438Z,33.30
2022-08-14T14:16:30.320Z,33.40
2022-08-14T14:19:08.851Z,33.50
2022-08-14T14:21:40.581Z,33.50
2022-08-14T14:24:11.735Z,33.50
2022-08-14T14:26:50.515Z,33.50
2022-08-14T14:29:24.067Z,33.40
2022-08-14T14:31:55.170Z,33.50
2022-08-14T14:34:30.244Z,33.50
2022-08-14T14:37:04.723Z,33.40
2022-08-14T14:39:37.470Z,33.30
2022-08-14T14:42:09.367Z,33.10
2022-08-14T14:44:44.641Z,33.10
2022-08-14T14:47:22.725Z,33.10
2022-08-14T14:49:55.438Z,33.00
2022-08-14T14:52:26.840Z,32.90
2022-08-14T14:54:58.563Z,32.80
2022-08-14T14:57:34.938Z,32.50
2022-08-14T15:00:13.224Z,32.40
2022-08-14T15:02:51.445Z,32.30
2022-08-14T15:05:21.405Z,32.30
2022-08-14T15:07:52.709Z,32.20
2022-08-14T15:10:27.532Z,32.30
2022-08-14T15:13:00.198Z,32.30
2022-08-14T15:15:28.513Z,32.30
2022-08-14T15:18:01.692Z,32.20
2022-08-14T15:20:32.157Z,32.10
2022-08-14T15:23:11.644Z,32.00
2022-08-14T15:25:41.783Z,32.00
2022-08-14T15:28:13.153Z,32.10
2022-08-14T15:30:59.081Z,32.00
2022-08-14T15:34:01.184Z,32.00
2022-08-14T15:36:36.017Z,32.00
2022-08-14T15:39:04.767Z,32.10
2022-08-14T15:41:41.507Z,32.10
2022-08-14T15:44:18.934Z,32.10
2022-08-14T15:46:56.401Z,32.00
2022-08-14T15:49:34.819Z,32.00
2022-08-14T15:52:05.047Z,32.00
2022-08-14T15:54:34.300Z,32.00
2022-08-14T15:57:08.341Z,31.90
2022-08-14T15:59:58.411Z,31.90
2022-08-14T16:02:28.058Z,31.80
2022-08-14T16:04:57.717Z,31.60
2022-08-14T16:07:27.296Z,31.40
2022-08-14T16:10:25.201Z,31.20
2022-08-14T16:12:47.508Z,31.10
2022-08-14T16:15:16.800Z,31.00
2022-08-14T16:17:46.667Z,30.90
2022-08-14T16:20:42.133Z,30.80
2022-08-14T16:23:07.637Z,30.70
2022-08-14T16:25:44.801Z,30.50
2022-08-14T16:28:27.094Z,30.40
2022-08-14T16:30:56.943Z,30.40
2022-08-14T16:33:27.948Z,30.30
2022-08-14T16:36:30.373Z,30.30
2022-08-14T16:39:02.312Z,30.30
2022-08-14T16:41:30.734Z,30.30
2022-08-14T16:44:04.764Z,30.40
2022-08-14T16:46:43.636Z,30.40
2022-08-14T16:49:17.423Z,30.30
2022-08-14T16:51:46.592Z,30.30
2022-08-14T16:54:35.429Z,30.30
2022-08-14T16:57:27.781Z,30.30
2022-08-14T17:00:00.417Z,30.30
2022-08-14T17:02:39.103Z,30.30
2022-08-14T17:05:22.241Z,30.20
2022-08-14T17:08:28.293Z,30.10
2022-08-14T17:11:00.477Z,30.10
2022-08-14T17:13:58.795Z,30.10
2022-08-14T17:16:25.509Z,30.10
2022-08-14T17:19:00.891Z,30.10
2022-08-14T17:21:41.116Z,30.10
2022-08-14T17:27:03.716Z,30.00
2022-08-14T17:29:54.547Z,29.90
2022-08-14T17:32:29.917Z,29.90
2022-08-14T17:35:16.423Z,29.90
2022-08-14T17:37:56.002Z,29.90
2022-08-14T17:40:30.074Z,29.90
2022-08-14T17:43:02.353Z,30.00
2022-08-14T17:45:41.382Z,30.00
2022-08-14T17:49:10.729Z,30.00
2022-08-14T17:51:23.832Z,29.90
2022-08-14T17:54:01.239Z,29.90
2022-08-14T17:56:31.506Z,29.80
2022-08-14T17:59:05.992Z,29.80
2022-08-14T18:01:37.829Z,29.80
2022-08-14T18:04:28.290Z,29.80
2022-08-14T18:07:16.458Z,29.70
2022-08-14T18:12:07.954Z,29.60
2022-08-14T18:14:48.834Z,29.60
2022-08-14T18:17:23.271Z,29.60
2022-08-14T18:19:52.520Z,29.50
2022-08-14T18:22:32.157Z,29.50
2022-08-14T18:25:19.236Z,29.50
2022-08-14T18:27:52.505Z,29.50
2022-08-14T18:30:33.605Z,29.40
2022-08-14T18:33:22.697Z,29.40
2022-08-14T18:35:58.471Z,29.30
2022-08-14T18:38:45.782Z,29.20
2022-08-14T18:41:36.234Z,29.20
2022-08-14T18:44:10.535Z,29.10
2022-08-14T18:47:08.448Z,29.10
2022-08-14T18:50:26.218Z,29.00
2022-08-14T18:53:06.953Z,28.90
2022-08-14T18:55:34.808Z,28.90
2022-08-14T18:58:18.818Z,28.80
2022-08-14T19:00:58.914Z,28.80
2022-08-14T19:03:39.035Z,28.70
2022-08-14T19:06:09.628Z,28.60
2022-08-14T19:08:47.257Z,28.50
2022-08-14T19:11:37.021Z,28.50
2022-08-14T19:14:06.935Z,28.40
2022-08-14T19:16:37.592Z,28.40
2022-08-14T19:19:13.599Z,28.30
2022-08-14T19:21:56.509Z,28.30
2022-08-14T19:24:34.770Z,28.20
2022-08-14T19:27:24.832Z,28.10
2022-08-14T19:30:21.153Z,28.10
2022-08-14T19:32:57.845Z,28.00
2022-08-14T19:35:48.749Z,28.00
2022-08-14T19:39:09.339Z,27.90
2022-08-14T19:41:39.239Z,27.80
2022-08-14T19:44:11.632Z,27.80
2022-08-14T19:47:02.865Z,27.70
2022-08-14T19:50:24.334Z,27.70
2022-08-14T19:52:25.413Z,27.60
2022-08-14T19:54:54.001Z,27.60
2022-08-14T19:57:31.258Z,27.50
2022-08-14T20:00:28.179Z,27.50
2022-08-14T20:03:11.354Z,27.40
2022-08-14T20:05:46.134Z,27.30
2022-08-14T20:09:06.485Z,27.30
2022-08-14T20:11:43.520Z,27.20
2022-08-14T20:14:10.369Z,27.20
2022-08-14T20:16:52.994Z,27.10
2022-08-14T20:19:29.558Z,27.00
2022-08-14T20:22:35.564Z,26.90
2022-08-14T20:24:54.560Z,26.80
2022-08-14T20:27:33.950Z,26.80
2022-08-14T20:30:29.910Z,26.70
2022-08-14T20:33:11.573Z,26.70
2022-08-14T20:35:41.886Z,26.70
2022-08-14T20:38:30.521Z,26.60
2022-08-14T20:41:10.753Z,26.60
2022-08-14T20:44:00.711Z,26.50
2022-08-14T20:46:39.549Z,26.50
2022-08-14T20:49:16.949Z,26.40
2022-08-14T20:51:59.409Z,26.40
2022-08-14T20:54:34.722Z,26.30
2022-08-14T20:57:09.539Z,26.30
2022-08-14T20:59:44.086Z,26.30
2022-08-14T21:02:34.467Z,26.30
2022-08-14T21:05:16.424Z,26.20
2022-08-14T21:07:50.523Z,26.10
2022-08-14T21:10:33.403Z,26.00
2022-08-14T21:13:27.509Z,26.00
2022-08-14T21:15:58.020Z,26.00
2022-08-14T21:18:32.619Z,26.00
2022-08-14T21:21:07.781Z,26.00
2022-08-14T21:23:53.757Z,25.90
2022-08-14T21:26:50.860Z,25.90
2022-08-14T21:29:22.384Z,25.80
2022-08-14T21:31:55.555Z,25.70
2022-08-14T21:34:31.001Z,25.60
2022-08-14T21:37:08.938Z,25.50
2022-08-14T21:39:38.850Z,25.40
2022-08-14T21:42:07.257Z,25.40
2022-08-14T21:44:42.783Z,25.30
2022-08-14T21:47:13.360Z,25.20
2022-08-14T21:49:48.131Z,25.10
2022-08-14T21:52:49.238Z,25.10
2022-08-14T21:55:10.319Z,25.00
2022-08-14T21:58:52.299Z,25.00
2022-08-14T22:00:42.036Z,24.90
2022-08-14T22:03:17.630Z,24.90
2022-08-14T22:05:51.168Z,24.90
2022-08-14T22:08:21.345Z,24.90
2022-08-14T22:10:51.698Z,24.90
2022-08-14T22:13:24.673Z,24.80
2022-08-14T22:15:59.510Z,24.80
2022-08-14T22:18:29.893Z,24.80
2022-08-14T22:20:59.097Z,24.70
2022-08-14T22:23:28.857Z,24.70
2022-08-14T22:25:57.416Z,24.70
2022-08-14T22:28:32.720Z,24.60
2022-08-14T22:31:10.446Z,24.60
2022-08-14T22:33:39.986Z,24.60
2022-08-14T22:36:27.357Z,24.50
2022-08-14T22:39:03.251Z,24.40
2022-08-14T22:41:42.800Z,24.30
2022-08-14T22:44:16.217Z,24.30
2022-08-14T22:46:45.115Z,24.20
2022-08-14T22:50:32.685Z,24.20
2022-08-14T22:52:33.185Z,24.10
2022-08-14T22:54:58.914Z,24.10
2022-08-14T22:58:08.667Z,24.10
2022-08-14T23:00:39.205Z,24.10
2022-08-14T23:03:16.829Z,24.10
2022-08-14T23:05:53.058Z,24.00
2022-08-14T23:08:58.332Z,24.00
2022-08-14T23:11:11.952Z,24.00
2022-08-14T23:13:43.374Z,23.90
2022-08-14T23:16:20.273Z,23.90
2022-08-14T23:18:53.857Z,23.80
2022-08-14T23:21:24.424Z,23.80
2022-08-14T23:23:55.531Z,23.80
2022-08-14T23:26:48.673Z,23.80
2022-08-14T23:29:20.096Z,23.80
2022-08-14T23:31:52.470Z,23.70
2022-08-14T23:34:21.848Z,23.70
2022-08-14T23:36:55.925Z,23.70
2022-08-14T23:39:30.521Z,23.70
2022-08-14T23:42:04.631Z,23.60
2022-08-14T23:44:35.132Z,23.50
2022-08-14T23:47:12.158Z,23.50
2022-08-14T23:50:03.351Z,23.40
2022-08-14T23:53:06.468Z,23.40
2022-08-14T23:55:30.240Z,23.40
2022-08-14T23:58:00.639Z,23.40
